Time;durP1;ratioP1;P1;durP2;ratioP2;P2;SDS_P1;SDS_P2;PMS_P1;PMS_P2;Temp;Humidity;BMP_temperature;BMP_pressure;BME280_temperature;BME280_humidity;BME280_pressure;Samples;Min_cycle;Max_cycle;Signal;HPM_P1;HPM_P2
2021/12/15 00:01:52;;;;;;;202.73;51.58;;;7.90;99.90;;;;;;4943195;28;20142;-71
2021/12/15 00:04:19;;;;;;;163.93;47.42;;;7.80;99.90;;;;;;4975651;28;20050;-72
2021/12/15 00:06:46;;;;;;;190.88;50.50;;;7.90;99.90;;;;;;4948594;28;20097;-72
2021/12/15 00:09:13;;;;;;;204.48;52.72;;;7.80;99.90;;;;;;4945745;28;20438;-71
2021/12/15 00:11:41;;;;;;;161.25;45.50;;;7.80;99.90;;;;;;4959173;28;20510;-70
2021/12/15 00:14:18;;;;;;;159.35;45.00;;;7.90;99.90;;;;;;4958906;28;20050;-72
2021/12/15 00:16:47;;;;;;;156.50;46.45;;;7.80;99.90;;;;;;4958915;28;20063;-71
2021/12/15 00:19:14;;;;;;;174.60;48.33;;;7.80;99.90;;;;;;4968435;28;20042;-71
2021/12/15 00:21:41;;;;;;;154.60;45.13;;;7.80;99.90;;;;;;5050132;28;20059;-71
2021/12/15 00:24:08;;;;;;;165.95;47.60;;;7.80;99.90;;;;;;4987788;28;20426;-72
2021/12/15 00:26:36;;;;;;;143.63;44.25;;;7.80;99.90;;;;;;4945195;28;20267;-71
2021/12/15 00:29:06;;;;;;;166.18;43.45;;;7.80;99.90;;;;;;4946041;28;20043;-73
2021/12/15 00:31:34;;;;;;;144.43;41.63;;;7.80;99.90;;;;;;4960010;28;20058;-72
2021/12/15 00:34:03;;;;;;;134.95;41.17;;;7.80;99.90;;;;;;4943968;28;20062;-72
2021/12/15 00:36:30;;;;;;;169.75;45.67;;;7.80;99.90;;;;;;4964998;28;20043;-72
2021/12/15 00:38:59;;;;;;;138.82;41.20;;;7.80;99.90;;;;;;4953729;28;20553;-71
2021/12/15 00:41:26;;;;;;;153.55;41.75;;;7.70;99.90;;;;;;4963671;28;20169;-72
2021/12/15 00:43:53;;;;;;;138.98;40.90;;;7.80;99.90;;;;;;4964014;28;20054;-72
2021/12/15 00:46:20;;;;;;;133.75;40.38;;;7.70;99.90;;;;;;4941411;28;20149;-72
2021/12/15 00:48:49;;;;;;;141.52;42.40;;;7.80;99.90;;;;;;4989220;28;20074;-72
2021/12/15 00:51:17;;;;;;;170.13;44.95;;;7.80;99.90;;;;;;4979610;28;20078;-73
2021/12/15 00:53:44;;;;;;;177.05;46.00;;;7.80;99.90;;;;;;4961609;28;20059;-72
2021/12/15 00:56:11;;;;;;;144.60;39.90;;;7.80;99.90;;;;;;4960948;28;20051;-73
2021/12/15 00:58:37;;;;;;;159.60;43.47;;;7.80;99.90;;;;;;4962331;28;20114;-72
2021/12/15 01:01:04;;;;;;;124.45;40.53;;;7.80;99.90;;;;;;4948204;28;20097;-73
2021/12/15 01:03:32;;;;;;;151.38;42.75;;;7.80;99.90;;;;;;4944635;28;20059;-72
2021/12/15 01:06:07;;;;;;;118.43;38.75;;;7.80;99.90;;;;;;4951865;28;20054;-72
2021/12/15 01:08:39;;;;;;;127.53;38.88;;;7.80;99.90;;;;;;4954789;28;20228;-73
2021/12/15 01:11:17;;;;;;;148.10;43.55;;;7.80;99.90;;;;;;4962165;28;20096;-71
2021/12/15 01:22:10;;;;;;;173.25;44.75;;;7.80;99.90;;;;;;4977255;28;20043;-71
2021/12/15 01:24:37;;;;;;;176.75;46.45;;;7.80;99.90;;;;;;4977322;28;20074;-72
2021/12/15 01:27:05;;;;;;;159.65;48.88;;;7.80;99.90;;;;;;4961958;28;20046;-72
2021/12/15 01:29:32;;;;;;;193.90;52.25;;;7.80;99.90;;;;;;4977447;28;20058;-72
2021/12/15 01:31:59;;;;;;;180.07;47.28;;;7.90;99.90;;;;;;4976403;28;20047;-73
2021/12/15 01:34:26;;;;;;;198.25;51.15;;;7.80;99.90;;;;;;4963482;28;20039;-72
2021/12/15 01:36:53;;;;;;;216.63;52.30;;;7.80;99.90;;;;;;4967123;28;20047;-72
2021/12/15 01:39:20;;;;;;;161.95;44.90;;;7.80;99.90;;;;;;4958658;28;20315;-73
2021/12/15 01:41:47;;;;;;;217.73;54.97;;;7.80;99.90;;;;;;4961143;28;20057;-73
2021/12/15 01:46:57;;;;;;;228.48;52.67;;;7.80;99.90;;;;;;4957383;28;20091;-71
2021/12/15 01:49:27;;;;;;;215.65;52.03;;;7.80;99.90;;;;;;4987689;28;20085;-72
2021/12/15 01:51:56;;;;;;;79.20;25.95;;;7.80;99.90;;;;;;4973297;28;20100;-72
2021/12/15 01:54:25;;;;;;;162.43;45.13;;;7.80;99.90;;;;;;4956308;28;20069;-72
2021/12/15 01:56:52;;;;;;;123.97;35.40;;;7.80;99.90;;;;;;4962499;28;20286;-73
2021/12/15 01:59:23;;;;;;;119.38;36.42;;;7.80;99.90;;;;;;4961220;28;20174;-72
2021/12/15 02:01:50;;;;;;;134.32;38.72;;;7.80;99.90;;;;;;4959425;28;20050;-72
2021/12/15 02:04:19;;;;;;;124.85;36.53;;;7.80;99.90;;;;;;4924707;28;20358;-73
2021/12/15 02:06:48;;;;;;;111.78;32.75;;;7.90;99.90;;;;;;4949338;28;20515;-73
2021/12/15 02:09:29;;;;;;;114.30;34.17;;;7.90;99.90;;;;;;4956984;28;20145;-72
2021/12/15 02:11:56;;;;;;;110.07;33.47;;;7.90;99.90;;;;;;4962159;28;20054;-72
2021/12/15 02:14:23;;;;;;;137.13;37.25;;;7.90;99.90;;;;;;4944216;28;20134;-73
2021/12/15 02:16:50;;;;;;;126.97;38.85;;;7.90;99.90;;;;;;4971209;28;20509;-71
2021/12/15 02:19:17;;;;;;;156.15;41.65;;;7.90;99.90;;;;;;4988597;28;20412;-72
2021/12/15 02:21:44;;;;;;;157.02;41.90;;;7.90;99.90;;;;;;4969073;28;20051;-72
2021/12/15 02:24:11;;;;;;;187.45;44.38;;;7.90;99.90;;;;;;4939419;28;20059;-72
2021/12/15 02:26:44;;;;;;;201.30;46.65;;;7.90;99.90;;;;;;4960654;28;20447;-72
2021/12/15 02:29:16;;;;;;;209.45;54.63;;;8.00;99.90;;;;;;4960040;28;20054;-72
2021/12/15 02:39:53;;;;;;;265.35;60.78;;;8.00;99.90;;;;;;4942393;28;20723;-72
2021/12/15 02:42:24;;;;;;;273.90;63.45;;;7.90;99.90;;;;;;4941785;28;20051;-71
2021/12/15 02:44:52;;;;;;;230.07;57.85;;;7.90;99.90;;;;;;4955707;28;20105;-72
2021/12/15 02:47:23;;;;;;;225.65;59.95;;;7.90;99.90;;;;;;4969306;28;20098;-72
2021/12/15 02:49:56;;;;;;;273.58;63.95;;;7.90;99.90;;;;;;4993673;28;20104;-71
2021/12/15 02:52:23;;;;;;;282.60;66.88;;;8.00;99.90;;;;;;4995808;28;20151;-71
2021/12/15 02:54:50;;;;;;;234.00;59.10;;;7.90;99.90;;;;;;4983410;28;20100;-72
2021/12/15 02:57:17;;;;;;;261.35;62.72;;;7.90;99.90;;;;;;4943077;28;20540;-72
2021/12/15 02:59:58;;;;;;;268.05;63.47;;;7.90;99.90;;;;;;4960812;28;20104;-72
2021/12/15 03:03:10;;;;;;;251.18;64.05;;;7.90;99.90;;;;;;4976203;28;20051;-72
2021/12/15 03:05:54;;;;;;;243.23;63.38;;;7.90;99.90;;;;;;4956305;28;20147;-71
2021/12/15 03:08:45;;;;;;;224.32;62.13;;;7.90;99.90;;;;;;4967183;28;20086;-71
2021/12/15 03:16:43;;;;;;;;;;;7.90;99.90;;;;;;4950438;28;20544;-72
2021/12/15 03:19:11;;;;;;;160.23;53.45;;;7.90;99.90;;;;;;4971421;28;20024;-72
2021/12/15 03:21:38;;;;;;;171.90;54.17;;;7.90;99.90;;;;;;4995339;28;20058;-72
2021/12/15 03:24:12;;;;;;;167.93;54.50;;;7.90;99.90;;;;;;4995948;28;20050;-71
2021/12/15 03:26:48;;;;;;;168.40;54.78;;;7.90;99.90;;;;;;4976109;28;20361;-72
2021/12/15 03:37:30;;;;;;;151.18;49.72;;;7.80;99.90;;;;;;4947604;28;20322;-71
2021/12/15 03:40:06;;;;;;;153.60;52.88;;;7.80;99.90;;;;;;4961752;28;20062;-72
2021/12/15 03:42:42;;;;;;;138.52;48.85;;;7.90;99.90;;;;;;4961420;28;20051;-71
2021/12/15 03:45:16;;;;;;;134.60;45.95;;;7.80;99.90;;;;;;4974995;28;20744;-72
2021/12/15 03:47:46;;;;;;;134.23;46.35;;;7.80;99.90;;;;;;4978535;28;20050;-70
2021/12/15 03:50:17;;;;;;;134.02;46.92;;;7.90;99.90;;;;;;4990455;28;20119;-72
2021/12/15 03:52:48;;;;;;;144.70;46.80;;;7.90;99.90;;;;;;4981146;28;20054;-72
2021/12/15 03:55:22;;;;;;;128.55;42.35;;;7.90;99.90;;;;;;4995072;28;20047;-73
2021/12/15 03:57:50;;;;;;;144.63;45.40;;;7.90;99.90;;;;;;4944938;28;20154;-72
2021/12/15 04:00:18;;;;;;;120.53;44.03;;;7.90;99.90;;;;;;4923942;28;20564;-71
2021/12/15 04:02:46;;;;;;;129.40;43.22;;;7.90;99.90;;;;;;4956703;28;20077;-71
2021/12/15 04:05:16;;;;;;;130.18;44.60;;;7.90;99.90;;;;;;4957341;28;20567;-72
2021/12/15 04:07:43;;;;;;;134.63;44.17;;;7.80;99.90;;;;;;4948452;28;20039;-71
2021/12/15 04:10:13;;;;;;;110.70;38.60;;;7.90;99.90;;;;;;4956613;28;20062;-73
2021/12/15 04:12:42;;;;;;;124.78;42.30;;;7.90;99.90;;;;;;4974128;28;20050;-72
2021/12/15 04:17:47;;;;;;;124.13;41.38;;;7.90;99.90;;;;;;4968994;28;20051;-71
2021/12/15 04:20:17;;;;;;;107.78;38.13;;;8.00;99.90;;;;;;5058556;22;20101;-79
2021/12/15 04:22:44;;;;;;;93.05;35.47;;;7.90;99.90;;;;;;5086242;28;20562;-80
2021/12/15 04:25:16;;;;;;;100.55;35.97;;;7.90;99.90;;;;;;5075790;28;20053;-80
2021/12/15 04:28:01;;;;;;;88.80;35.63;;;7.80;99.90;;;;;;5037822;28;20727;-81
2021/12/15 04:30:31;;;;;;;95.40;38.35;;;7.90;99.90;;;;;;5035719;28;20044;-79
2021/12/15 04:33:07;;;;;;;88.78;33.10;;;7.90;99.90;;;;;;5022377;28;20056;-82
2021/12/15 04:35:35;;;;;;;95.55;35.15;;;7.90;99.90;;;;;;5040647;28;20535;-82
2021/12/15 04:38:02;;;;;;;89.05;32.38;;;7.90;99.90;;;;;;5036173;28;20053;-78
2021/12/15 04:40:30;;;;;;;79.50;31.83;;;7.80;99.90;;;;;;5035203;28;20503;-80
2021/12/15 04:42:59;;;;;;;73.45;30.13;;;7.90;99.90;;;;;;5034262;28;20065;-80
2021/12/15 04:45:29;;;;;;;79.75;31.83;;;7.90;99.90;;;;;;5051166;28;20049;-80
2021/12/15 04:47:57;;;;;;;76.75;32.83;;;7.90;99.90;;;;;;5053381;28;20052;-78
2021/12/15 04:50:29;;;;;;;72.97;30.13;;;7.90;99.90;;;;;;5036662;28;20045;-79
2021/12/15 04:53:02;;;;;;;71.78;29.05;;;7.90;99.90;;;;;;5051201;28;20106;-81
2021/12/15 04:55:33;;;;;;;70.50;29.77;;;7.90;99.90;;;;;;5032089;28;20068;-79
2021/12/15 04:58:01;;;;;;;59.58;27.25;;;7.90;99.90;;;;;;5032569;28;20091;-80
2021/12/15 05:00:33;;;;;;;64.60;28.83;;;7.80;99.90;;;;;;5049684;28;20053;-79
2021/12/15 05:03:00;;;;;;;56.33;27.23;;;7.80;99.90;;;;;;5033369;28;20110;-79
2021/12/15 05:05:35;;;;;;;62.67;27.42;;;7.90;99.90;;;;;;5044641;28;20052;-79
2021/12/15 05:08:05;;;;;;;64.72;27.63;;;7.80;99.90;;;;;;5034523;28;20047;-82
2021/12/15 05:10:34;;;;;;;65.85;27.77;;;7.80;99.90;;;;;;5034216;28;20053;-78
2021/12/15 05:13:02;;;;;;;63.58;28.60;;;7.80;99.90;;;;;;5047878;28;20068;-79
2021/12/15 05:15:29;;;;;;;68.03;29.55;;;7.80;99.90;;;;;;5038576;28;20100;-79
2021/12/15 05:17:56;;;;;;;61.20;28.00;;;7.90;99.90;;;;;;5033054;28;20044;-78
2021/12/15 05:20:25;;;;;;;56.63;27.35;;;7.90;99.90;;;;;;5027427;28;20057;-80
2021/12/15 05:22:54;;;;;;;61.47;29.13;;;7.90;99.90;;;;;;5043866;28;20047;-80
2021/12/15 05:25:22;;;;;;;62.67;29.05;;;7.90;99.90;;;;;;5040665;28;20057;-80
2021/12/15 05:27:48;;;;;;;56.95;28.58;;;7.90;99.90;;;;;;5014025;23;20254;-71
2021/12/15 05:30:18;;;;;;;64.90;30.17;;;7.90;99.90;;;;;;4974856;28;20042;-69
2021/12/15 05:32:45;;;;;;;61.55;27.40;;;7.90;99.90;;;;;;4995641;28;20050;-70
2021/12/15 05:35:16;;;;;;;66.53;27.83;;;7.90;99.90;;;;;;4980600;28;20038;-70
2021/12/15 05:37:43;;;;;;;70.13;31.02;;;7.90;99.90;;;;;;4956306;28;20054;-69
2021/12/15 05:40:11;;;;;;;60.15;28.42;;;7.90;99.90;;;;;;4958286;28;20054;-69
2021/12/15 05:42:38;;;;;;;61.40;28.00;;;7.80;99.90;;;;;;5013230;28;20532;-68
2021/12/15 05:45:06;;;;;;;64.88;31.02;;;7.80;99.90;;;;;;5076315;28;20044;-70
2021/12/15 05:47:34;;;;;;;69.70;30.92;;;7.80;99.90;;;;;;4984472;28;20638;-68
2021/12/15 05:50:03;;;;;;;64.28;31.10;;;7.80;99.90;;;;;;4956495;28;20050;-68
2021/12/15 05:52:31;;;;;;;71.15;32.80;;;7.80;99.90;;;;;;4975811;28;20062;-69
2021/12/15 05:54:59;;;;;;;74.55;38.15;;;7.90;99.90;;;;;;4956335;28;20034;-70
2021/12/15 05:57:26;;;;;;;73.75;35.63;;;7.90;99.90;;;;;;4972892;28;20657;-70
2021/12/15 05:59:53;;;;;;;72.75;30.63;;;7.90;99.90;;;;;;4975717;28;20166;-69
2021/12/15 06:02:20;;;;;;;56.63;28.02;;;7.90;99.90;;;;;;4974708;28;20050;-68
2021/12/15 06:04:47;;;;;;;62.63;29.13;;;8.00;99.90;;;;;;4974018;28;20038;-70
2021/12/15 06:07:14;;;;;;;58.33;27.85;;;7.90;99.90;;;;;;4957933;28;20046;-70
2021/12/15 06:09:41;;;;;;;61.28;29.42;;;8.00;99.90;;;;;;4958216;28;20700;-69
2021/12/15 06:12:09;;;;;;;61.50;29.98;;;8.00;99.90;;;;;;4963215;28;20042;-69
2021/12/15 06:14:36;;;;;;;66.65;31.58;;;8.00;99.90;;;;;;4956510;28;20051;-69
2021/12/15 06:17:10;;;;;;;58.83;29.10;;;8.00;99.90;;;;;;4974225;28;20458;-69
2021/12/15 06:19:37;;;;;;;64.97;30.33;;;7.90;99.90;;;;;;4968719;28;20054;-69
2021/12/15 06:22:05;;;;;;;61.88;29.30;;;8.00;99.90;;;;;;4973117;28;20073;-70
2021/12/15 06:24:33;;;;;;;60.83;28.33;;;8.00;99.90;;;;;;4956112;28;20058;-70
2021/12/15 06:27:05;;;;;;;60.08;28.52;;;7.90;99.90;;;;;;4972368;28;20151;-70
2021/12/15 06:29:33;;;;;;;58.88;29.27;;;8.00;99.90;;;;;;4957966;28;20134;-70
2021/12/15 06:32:00;;;;;;;56.22;28.92;;;8.00;99.90;;;;;;4973535;28;20054;-69
2021/12/15 06:34:27;;;;;;;60.05;28.55;;;7.90;99.90;;;;;;4973883;28;20115;-70
2021/12/15 06:36:55;;;;;;;59.28;29.92;;;8.00;99.90;;;;;;4972339;28;20416;-71
2021/12/15 06:39:22;;;;;;;60.95;28.92;;;8.00;99.90;;;;;;4956586;28;20458;-69
2021/12/15 06:41:49;;;;;;;55.53;26.52;;;8.00;99.90;;;;;;4977023;28;20468;-70
2021/12/15 06:44:16;;;;;;;58.17;28.80;;;8.00;99.90;;;;;;4985126;28;20494;-69
2021/12/15 07:00:11;;;;;;;52.38;25.58;;;7.90;99.90;;;;;;4973504;28;20046;-69
2021/12/15 07:02:39;;;;;;;46.45;23.38;;;7.90;99.90;;;;;;4974474;28;20572;-70
2021/12/15 07:05:08;;;;;;;51.05;23.85;;;7.90;99.90;;;;;;4971727;28;20054;-70
2021/12/15 07:07:40;;;;;;;48.13;25.92;;;7.90;99.90;;;;;;4972654;28;20565;-68
2021/12/15 07:10:10;;;;;;;48.45;25.15;;;7.90;99.90;;;;;;4955737;28;20046;-70
2021/12/15 07:12:37;;;;;;;53.33;24.75;;;7.90;99.90;;;;;;4958973;28;20050;-69
2021/12/15 07:15:06;;;;;;;48.75;24.52;;;7.90;99.90;;;;;;4972153;28;20076;-70
2021/12/15 07:17:35;;;;;;;55.35;27.08;;;7.90;99.90;;;;;;4999734;28;20039;-70
2021/12/15 07:20:17;;;;;;;54.55;25.70;;;7.90;99.90;;;;;;4971834;28;20168;-69
2021/12/15 07:22:44;;;;;;;51.80;25.23;;;7.90;99.90;;;;;;4955893;28;20534;-70
2021/12/15 07:25:13;;;;;;;55.72;26.15;;;7.90;99.90;;;;;;4955082;28;20084;-71
2021/12/15 07:27:42;;;;;;;53.22;25.15;;;7.90;99.90;;;;;;4972716;28;20103;-69
2021/12/15 07:30:10;;;;;;;55.65;25.63;;;7.90;99.90;;;;;;4972108;28;20589;-70
2021/12/15 07:32:37;;;;;;;54.60;25.05;;;7.90;99.90;;;;;;4971893;28;20054;-69
2021/12/15 07:35:05;;;;;;;63.88;26.83;;;7.90;99.90;;;;;;4952846;28;20510;-69
2021/12/15 07:37:32;;;;;;;54.15;25.60;;;7.90;99.90;;;;;;4972476;28;20058;-69
2021/12/15 07:40:01;;;;;;;60.13;26.42;;;8.00;99.90;;;;;;4974328;28;20095;-70
2021/12/15 07:42:53;;;;;;;52.05;23.48;;;8.00;99.90;;;;;;4973007;28;20080;-72
2021/12/15 07:45:20;;;;;;;51.03;23.55;;;7.90;99.90;;;;;;4973141;28;20249;-69
2021/12/15 07:47:47;;;;;;;45.78;21.65;;;7.90;99.90;;;;;;4939104;28;20054;-69
2021/12/15 07:50:14;;;;;;;47.45;22.70;;;7.90;99.90;;;;;;4972291;28;20050;-70
2021/12/15 07:52:40;;;;;;;42.75;20.60;;;8.00;99.90;;;;;;4957790;28;20055;-70
2021/12/15 07:55:08;;;;;;;42.70;20.20;;;8.00;99.90;;;;;;4972867;28;20051;-69
2021/12/15 07:57:34;;;;;;;40.50;20.60;;;7.90;99.90;;;;;;4973490;28;20115;-69
2021/12/15 08:00:01;;;;;;;45.88;20.83;;;8.00;99.90;;;;;;4972859;28;20070;-70
2021/12/15 08:02:38;;;;;;;37.10;19.48;;;7.90;99.90;;;;;;4974476;28;20157;-70
2021/12/15 08:05:05;;;;;;;38.67;18.38;;;7.90;99.90;;;;;;4967758;28;20107;-69
2021/12/15 08:07:32;;;;;;;37.80;17.33;;;8.00;99.90;;;;;;4973630;28;20099;-72
2021/12/15 08:09:59;;;;;;;39.08;18.77;;;8.00;99.90;;;;;;4956957;28;20061;-70
2021/12/15 08:12:28;;;;;;;40.75;19.50;;;7.90;99.90;;;;;;4956517;28;20080;-70
2021/12/15 08:14:55;;;;;;;34.22;17.33;;;7.90;99.90;;;;;;4972074;28;20054;-69
2021/12/15 08:17:22;;;;;;;40.30;18.20;;;7.90;99.90;;;;;;4955735;28;20061;-71
2021/12/15 08:19:49;;;;;;;33.33;16.55;;;7.90;99.90;;;;;;4972906;28;20781;-70
2021/12/15 08:22:16;;;;;;;36.33;18.40;;;7.90;99.90;;;;;;4973119;28;20107;-70
2021/12/15 08:24:43;;;;;;;36.67;18.25;;;7.90;99.90;;;;;;4973502;28;20276;-70
2021/12/15 08:27:09;;;;;;;35.08;16.83;;;7.90;99.90;;;;;;4971411;28;20065;-70
2021/12/15 08:29:36;;;;;;;31.10;15.68;;;7.90;99.90;;;;;;4972585;28;20712;-71
2021/12/15 08:32:04;;;;;;;28.58;15.05;;;7.90;99.90;;;;;;4973301;28;20103;-71
2021/12/15 08:34:30;;;;;;;27.90;14.82;;;8.00;99.90;;;;;;4972185;28;20038;-69
2021/12/15 08:36:57;;;;;;;32.75;15.15;;;8.00;99.90;;;;;;5050003;28;20097;-71
2021/12/15 08:39:24;;;;;;;29.33;14.35;;;8.00;99.90;;;;;;4987740;28;20062;-70
2021/12/15 08:41:51;;;;;;;30.13;15.93;;;8.10;99.90;;;;;;4970797;28;20058;-71
2021/12/15 08:44:18;;;;;;;40.50;16.08;;;8.00;99.90;;;;;;4973664;28;20058;-70
2021/12/15 08:46:47;;;;;;;29.52;15.02;;;8.10;99.90;;;;;;4972830;28;20046;-70
2021/12/15 08:49:18;;;;;;;28.45;14.38;;;8.00;99.90;;;;;;4978155;28;20069;-70
2021/12/15 08:51:46;;;;;;;28.73;14.52;;;8.00;99.90;;;;;;4958395;28;20048;-70
2021/12/15 08:54:16;;;;;;;27.63;13.73;;;8.00;99.90;;;;;;4957906;28;20112;-70
2021/12/15 08:56:44;;;;;;;23.70;12.93;;;8.00;99.90;;;;;;4955836;28;20062;-70
2021/12/15 08:59:12;;;;;;;27.17;12.68;;;8.00;99.90;;;;;;4975328;28;20054;-71
2021/12/15 09:01:41;;;;;;;22.65;12.05;;;8.00;99.90;;;;;;4957952;28;20115;-71
2021/12/15 09:04:09;;;;;;;23.58;11.52;;;8.10;99.90;;;;;;4974389;28;20059;-71
2021/12/15 09:06:38;;;;;;;20.73;11.85;;;8.00;99.90;;;;;;4993437;28;20043;-69
2021/12/15 09:09:08;;;;;;;21.15;12.40;;;8.10;99.90;;;;;;4969343;28;20460;-71
2021/12/15 09:11:36;;;;;;;19.80;11.32;;;8.10;99.90;;;;;;4966834;28;20558;-70
2021/12/15 09:14:04;;;;;;;20.98;11.60;;;8.10;99.90;;;;;;5024600;28;20572;-71
2021/12/15 09:16:35;;;;;;;20.10;11.75;;;8.10;99.90;;;;;;4957750;28;20499;-71
2021/12/15 09:19:04;;;;;;;19.67;11.52;;;8.00;99.90;;;;;;4958966;28;20054;-70
2021/12/15 09:21:32;;;;;;;19.67;11.93;;;8.00;99.90;;;;;;4974474;28;20039;-71
2021/12/15 09:24:01;;;;;;;21.98;11.77;;;8.00;99.90;;;;;;4959516;28;20057;-72
2021/12/15 09:26:28;;;;;;;22.27;11.80;;;8.10;99.90;;;;;;4942033;28;20552;-72
2021/12/15 09:28:56;;;;;;;21.83;12.10;;;8.10;99.90;;;;;;4958566;28;20396;-72
2021/12/15 09:31:22;;;;;;;21.15;11.35;;;8.10;99.90;;;;;;4976594;28;20111;-72
2021/12/15 09:33:51;;;;;;;19.20;12.20;;;8.10;99.90;;;;;;4976518;28;20043;-71
2021/12/15 09:36:21;;;;;;;22.83;12.48;;;8.10;99.90;;;;;;4972852;28;20153;-71
2021/12/15 09:38:53;;;;;;;23.83;11.90;;;8.10;99.90;;;;;;4974981;28;20511;-71
2021/12/15 09:41:21;;;;;;;25.42;14.30;;;8.10;99.90;;;;;;4957567;28;20038;-71
2021/12/15 09:43:51;;;;;;;21.02;12.75;;;8.10;99.90;;;;;;4977414;28;20140;-72
2021/12/15 09:46:35;;;;;;;26.02;13.05;;;8.10;99.90;;;;;;5054336;28;20054;-71
2021/12/15 10:03:13;;;;;;;24.40;14.40;;;8.10;99.90;;;;;;4956671;28;20054;-71
2021/12/15 10:06:03;;;;;;;29.85;15.30;;;8.20;99.90;;;;;;4966360;28;20427;-72
2021/12/15 10:19:33;;;;;;;28.77;17.98;;;8.30;99.90;;;;;;4986925;23;20026;-71
2021/12/15 10:22:30;;;;;;;30.85;20.35;;;8.30;99.90;;;;;;4987294;28;20062;-71
2021/12/15 10:25:01;;;;;;;25.80;14.52;;;8.40;99.90;;;;;;4992776;28;20041;-72
2021/12/15 10:27:42;;;;;;;21.83;14.02;;;8.40;99.90;;;;;;5000274;28;20624;-69
2021/12/15 10:30:09;;;;;;;23.88;13.55;;;8.40;99.90;;;;;;5037055;28;20055;-70
2021/12/15 10:32:39;;;;;;;23.25;13.63;;;8.40;99.90;;;;;;5094111;28;20054;-71
2021/12/15 10:35:17;;;;;;;20.83;13.27;;;8.40;99.90;;;;;;5066408;28;20044;-70
2021/12/15 10:38:06;;;;;;;20.90;12.55;;;8.40;99.90;;;;;;5080616;28;20138;-71
2021/12/15 10:40:47;;;;;;;21.52;13.13;;;8.40;99.90;;;;;;5076373;28;20052;-71
2021/12/15 10:43:14;;;;;;;22.50;13.98;;;8.40;99.90;;;;;;5078383;28;20052;-70
2021/12/15 10:45:55;;;;;;;26.08;14.82;;;8.50;99.90;;;;;;5041780;28;20128;-71
2021/12/15 10:48:35;;;;;;;22.60;11.90;;;8.50;99.90;;;;;;5059210;28;20211;-72
2021/12/15 10:51:19;;;;;;;31.58;16.75;;;8.50;99.90;;;;;;5060137;28;20043;-70
2021/12/15 10:53:47;;;;;;;26.05;13.88;;;8.50;99.90;;;;;;5079567;28;20044;-71
2021/12/15 10:56:21;;;;;;;23.73;13.30;;;8.50;99.90;;;;;;5055055;28;20044;-70
2021/12/15 10:58:51;;;;;;;19.58;11.75;;;8.50;99.90;;;;;;5073491;28;20040;-71
2021/12/15 11:01:46;;;;;;;20.88;12.23;;;8.50;99.90;;;;;;5070636;28;20100;-70
2021/12/15 11:04:20;;;;;;;21.00;10.98;;;8.50;99.90;;;;;;5096938;28;20055;-70
2021/12/15 11:07:03;;;;;;;20.17;12.73;;;8.40;99.90;;;;;;5092852;28;20562;-70
2021/12/15 11:09:36;;;;;;;25.95;13.80;;;8.50;99.90;;;;;;5080230;28;20044;-71
2021/12/15 11:12:10;;;;;;;22.67;13.57;;;8.50;99.90;;;;;;5079605;28;20358;-70
2021/12/15 11:14:40;;;;;;;20.38;12.77;;;8.50;99.90;;;;;;5097285;28;20071;-70
2021/12/15 11:17:32;;;;;;;18.65;11.25;;;8.40;99.90;;;;;;5078684;28;20087;-73
2021/12/15 11:20:05;;;;;;;20.33;11.88;;;8.40;99.90;;;;;;5094631;28;20055;-71
2021/12/15 11:22:44;;;;;;;20.77;11.52;;;8.40;99.90;;;;;;5078585;28;20079;-70
2021/12/15 11:25:32;;;;;;;20.20;11.95;;;8.40;99.90;;;;;;5059376;28;20312;-71
2021/12/15 11:28:04;;;;;;;19.33;11.27;;;8.40;99.90;;;;;;5079496;28;20087;-72
2021/12/15 11:30:40;;;;;;;17.60;11.95;;;8.40;99.90;;;;;;5079356;28;20043;-71
2021/12/15 11:33:19;;;;;;;17.92;12.02;;;8.40;99.90;;;;;;5078113;28;20060;-70
2021/12/15 11:35:55;;;;;;;19.17;12.23;;;8.40;99.90;;;;;;5082876;28;20048;-70
2021/12/15 11:38:24;;;;;;;19.48;12.23;;;8.40;99.90;;;;;;5097061;28;20154;-69
2021/12/15 11:40:57;;;;;;;20.23;13.55;;;8.50;99.90;;;;;;5097081;28;20204;-71
2021/12/15 11:43:30;;;;;;;19.20;11.63;;;8.50;99.90;;;;;;5098442;28;20142;-72
2021/12/15 11:45:59;;;;;;;20.58;12.73;;;8.50;99.90;;;;;;5099253;28;20047;-69
2021/12/15 11:48:32;;;;;;;19.40;12.30;;;8.50;99.90;;;;;;5077070;28;20059;-70
2021/12/15 11:51:05;;;;;;;17.85;11.75;;;8.50;99.90;;;;;;5098772;28;20135;-71
2021/12/15 11:53:42;;;;;;;19.05;11.35;;;8.50;99.90;;;;;;5098017;28;20047;-71
2021/12/15 11:56:22;;;;;;;17.00;10.77;;;8.60;99.90;;;;;;5097331;28;20477;-71
2021/12/15 11:58:54;;;;;;;20.13;11.90;;;8.50;99.90;;;;;;5097735;28;20051;-71
2021/12/15 12:01:51;;;;;;;20.08;12.23;;;8.50;99.90;;;;;;5080158;28;20071;-71
2021/12/15 12:04:44;;;;;;;19.40;11.10;;;8.50;99.90;;;;;;5079272;28;20051;-72
2021/12/15 12:07:29;;;;;;;19.77;12.40;;;8.60;99.90;;;;;;5065214;28;20310;-70
2021/12/15 12:10:05;;;;;;;19.75;11.90;;;8.60;99.90;;;;;;5060559;28;20043;-72
2021/12/15 12:12:41;;;;;;;18.58;10.88;;;8.60;99.90;;;;;;5066190;28;20104;-71
2021/12/15 12:15:14;;;;;;;18.75;10.80;;;8.60;99.90;;;;;;5098284;28;20074;-72
2021/12/15 12:17:44;;;;;;;18.92;11.75;;;8.60;99.90;;;;;;5100450;28;20096;-71
2021/12/15 12:20:14;;;;;;;16.23;10.45;;;8.60;99.90;;;;;;5101072;28;20532;-71
2021/12/15 12:22:45;;;;;;;20.58;11.48;;;8.60;99.90;;;;;;5086862;28;20684;-70
2021/12/15 12:25:16;;;;;;;18.08;12.55;;;8.70;99.90;;;;;;5066208;28;20087;-71
2021/12/15 12:27:45;;;;;;;19.83;10.77;;;8.70;99.90;;;;;;5069948;28;20079;-70
2021/12/15 12:30:19;;;;;;;19.67;10.88;;;8.70;99.90;;;;;;5086069;28;20132;-72
2021/12/15 12:32:46;;;;;;;22.52;13.48;;;8.70;99.90;;;;;;5087112;28;20048;-70
2021/12/15 12:35:17;;;;;;;21.02;12.95;;;8.70;99.90;;;;;;5079714;28;20055;-73
2021/12/15 12:37:54;;;;;;;19.23;13.18;;;8.70;99.90;;;;;;5101538;28;20525;-73
2021/12/15 12:40:33;;;;;;;26.35;14.00;;;8.70;99.90;;;;;;5104289;28;20523;-73
2021/12/15 12:43:26;;;;;;;24.08;14.88;;;8.70;99.90;;;;;;5088548;28;20171;-72
2021/12/15 12:46:12;;;;;;;23.10;12.70;;;8.80;99.90;;;;;;5101110;28;20279;-73
2021/12/15 12:48:54;;;;;;;18.42;12.23;;;8.70;99.90;;;;;;5105425;28;20471;-73
2021/12/15 12:59:59;;;;;;;19.85;13.02;;;8.70;99.90;;;;;;5086361;28;20052;-72
2021/12/15 13:02:38;;;;;;;19.10;12.75;;;8.70;99.90;;;;;;5086161;28;20068;-73
2021/12/15 13:05:24;;;;;;;19.65;12.07;;;8.70;99.90;;;;;;5066995;28;20044;-72
2021/12/15 13:07:54;;;;;;;20.75;12.25;;;8.80;99.90;;;;;;5080685;28;20511;-73
2021/12/15 13:10:41;;;;;;;22.98;13.18;;;8.70;99.90;;;;;;5067315;28;20435;-73
2021/12/15 13:13:12;;;;;;;20.17;12.77;;;8.80;99.90;;;;;;5066815;28;20105;-73
2021/12/15 13:15:39;;;;;;;20.35;12.55;;;8.80;99.90;;;;;;5085097;28;20415;-72
2021/12/15 13:18:12;;;;;;;19.63;12.23;;;8.70;99.90;;;;;;5085024;28;20090;-73
2021/12/15 13:20:39;;;;;;;17.58;11.48;;;8.70;99.90;;;;;;5085591;28;20143;-73
2021/12/15 13:28:43;;;;;;;18.63;11.45;;;8.70;99.90;;;;;;5066942;28;20044;-74
2021/12/15 13:31:16;;;;;;;21.33;12.40;;;8.80;99.90;;;;;;5068013;28;20482;-72
2021/12/15 13:33:48;;;;;;;15.00;10.20;;;8.80;99.90;;;;;;5085431;28;20052;-73
2021/12/15 13:36:19;;;;;;;19.17;11.13;;;8.80;99.90;;;;;;5066172;28;20125;-73
2021/12/15 13:39:05;;;;;;;14.82;11.23;;;8.90;99.90;;;;;;5082473;28;20491;-73
2021/12/15 13:41:41;;;;;;;18.20;11.88;;;8.90;99.90;;;;;;5051241;28;20197;-73
2021/12/15 13:44:29;;;;;;;17.55;11.25;;;9.00;99.90;;;;;;5085149;28;20051;-73
2021/12/15 13:46:56;;;;;;;17.88;11.18;;;9.00;99.90;;;;;;5084703;28;20036;-73
2021/12/15 13:49:28;;;;;;;18.90;11.60;;;8.90;99.90;;;;;;5084951;28;20153;-72
2021/12/15 13:51:58;;;;;;;17.05;10.55;;;8.90;99.90;;;;;;5085218;28;20064;-73
2021/12/15 13:54:35;;;;;;;21.23;13.30;;;8.80;99.90;;;;;;5085063;28;20462;-73
2021/12/15 13:57:14;;;;;;;19.42;11.35;;;8.80;99.90;;;;;;5083701;28;20044;-75
2021/12/15 13:59:45;;;;;;;17.02;11.27;;;8.80;99.90;;;;;;5067266;28;20105;-73
2021/12/15 14:02:25;;;;;;;23.15;11.35;;;8.70;99.90;;;;;;5067335;28;20223;-72
2021/12/15 14:05:06;;;;;;;19.35;11.57;;;8.80;99.90;;;;;;5067152;28;20318;-72
2021/12/15 14:07:53;;;;;;;19.30;11.40;;;8.80;99.90;;;;;;5049953;28;20048;-72
2021/12/15 14:10:21;;;;;;;32.17;16.08;;;8.80;99.90;;;;;;5085291;28;20125;-72
2021/12/15 14:12:49;;;;;;;22.48;12.43;;;8.80;99.90;;;;;;5085438;28;20069;-73
2021/12/15 14:15:25;;;;;;;20.08;12.25;;;8.80;99.90;;;;;;5084545;28;20458;-73
2021/12/15 14:18:05;;;;;;;24.67;14.45;;;8.80;99.90;;;;;;5084415;28;20253;-73
2021/12/15 14:20:36;;;;;;;21.70;12.00;;;8.70;99.90;;;;;;5081008;28;20040;-72
2021/12/15 14:23:06;;;;;;;23.80;12.43;;;8.80;99.90;;;;;;5085224;28;20079;-75